Time;durP1;ratioP1;P1;durP2;ratioP2;P2;SDS_P1;SDS_P2;PMS_P1;PMS_P2;Temp;Humidity;BMP_temperature;BMP_pressure;BME280_temperature;BME280_humidity;BME280_pressure;Samples;Min_cycle;Max_cycle;Signal;HPM_P1;HPM_P2
2021/08/06 00:00:25;;;;;;;4.03;3.10;;;;;;;18.52;64.04;98357.78;5012364;28;20409;-67
2021/08/06 00:02:51;;;;;;;5.45;3.72;;;;;;;18.47;64.16;98362.78;5013522;28;20034;-68
2021/08/06 00:05:16;;;;;;;5.15;2.90;;;;;;;18.43;64.27;98351.59;5012868;28;20026;-67
2021/08/06 00:07:42;;;;;;;6.35;3.05;;;;;;;18.40;64.35;98351.91;5012368;28;20037;-69
2021/08/06 00:10:07;;;;;;;4.88;3.70;;;;;;;18.35;64.71;98353.38;5012944;28;20045;-68
2021/08/06 00:12:33;;;;;;;3.90;3.00;;;;;;;18.32;64.80;98348.38;5011581;28;20057;-67
2021/08/06 00:14:58;;;;;;;3.60;2.75;;;;;;;18.30;65.04;98351.19;5013269;28;20033;-68
2021/08/06 00:17:24;;;;;;;4.60;3.28;;;;;;;18.24;65.24;98346.50;5011856;28;20025;-68
2021/08/06 00:19:49;;;;;;;4.53;3.03;;;;;;;18.18;65.84;98347.13;5013330;28;20402;-68
2021/08/06 00:22:14;;;;;;;5.25;3.20;;;;;;;18.17;65.65;98345.47;4998521;28;20551;-68
2021/08/06 00:24:40;;;;;;;4.70;3.40;;;;;;;18.14;65.55;98343.97;5003683;28;20069;-67
2021/08/06 00:27:05;;;;;;;3.67;2.85;;;;;;;18.12;65.47;98343.28;5004023;28;20042;-70
2021/08/06 00:29:31;;;;;;;3.78;2.92;;;;;;;18.14;65.47;98341.28;5013298;28;20033;-68
2021/08/06 00:31:56;;;;;;;6.75;3.75;;;;;;;18.14;65.07;98337.75;5012239;28;20048;-68
2021/08/06 00:34:21;;;;;;;4.13;2.85;;;;;;;18.17;64.96;98337.47;5013178;28;20039;-68
2021/08/06 00:36:47;;;;;;;4.15;3.08;;;;;;;18.17;65.01;98335.63;5011665;28;20053;-68
2021/08/06 00:39:12;;;;;;;5.30;2.95;;;;;;;18.15;65.19;98334.13;5011999;28;20200;-68
2021/08/06 00:41:38;;;;;;;3.95;2.60;;;;;;;18.15;65.26;98337.63;5012526;28;20482;-68
2021/08/06 00:44:05;;;;;;;5.32;3.05;;;;;;;18.14;65.04;98319.97;5012685;28;20056;-68
2021/08/06 00:46:31;;;;;;;3.85;2.72;;;;;;;18.15;64.99;98326.13;5012449;28;20036;-68
2021/08/06 00:48:56;;;;;;;5.03;2.53;;;;;;;18.16;65.20;98319.78;5013018;28;20153;-68
2021/08/06 00:51:22;;;;;;;3.90;2.83;;;;;;;18.16;65.13;98323.31;5012601;28;20113;-68
2021/08/06 00:53:47;;;;;;;4.53;2.80;;;;;;;18.17;65.28;98324.97;5012059;28;20026;-67
2021/08/06 00:56:13;;;;;;;6.30;2.65;;;;;;;18.18;65.21;98321.28;5012120;28;20045;-68
2021/08/06 00:58:39;;;;;;;5.32;2.50;;;;;;;18.18;65.14;98318.63;5010995;28;20462;-67
2021/08/06 01:01:05;;;;;;;6.05;3.05;;;;;;;18.21;65.06;98321.00;4988288;28;20049;-65
2021/08/06 01:03:42;;;;;;;5.45;3.22;;;;;;;18.20;65.02;98318.47;5012519;28;20046;-67
2021/08/06 01:06:17;;;;;;;6.03;3.97;;;;;;;18.17;65.52;98319.63;5012469;28;20053;-67
2021/08/06 01:09:00;;;;;;;6.20;2.97;;;;;;;18.14;65.81;98321.75;5012953;28;20057;-68
2021/08/06 01:11:30;;;;;;;5.43;3.95;;;;;;;18.09;65.98;98316.94;5012022;28;20033;-68
2021/08/06 01:13:57;;;;;;;4.15;2.95;;;;;;;18.08;66.72;98314.41;5012181;28;20030;-67
2021/08/06 01:16:31;;;;;;;4.28;2.80;;;;;;;18.03;67.43;98307.72;5016660;28;20119;-67
2021/08/06 01:18:59;;;;;;;5.63;3.75;;;;;;;18.00;67.27;98310.72;5011855;28;20046;-68
2021/08/06 01:21:27;;;;;;;4.07;3.33;;;;;;;17.94;67.96;98307.84;5011678;28;20050;-68
2021/08/06 01:23:57;;;;;;;5.30;2.95;;;;;;;17.91;67.93;98306.31;5011662;28;20033;-66
2021/08/06 01:26:24;;;;;;;4.78;2.80;;;;;;;17.88;68.36;98306.66;5010907;28;20446;-68
2021/08/06 01:28:50;;;;;;;5.32;2.92;;;;;;;17.87;68.70;98307.66;5012103;28;20034;-67
2021/08/06 01:31:24;;;;;;;5.85;2.90;;;;;;;17.86;68.41;98308.63;5011786;28;20033;-67
2021/08/06 01:33:50;;;;;;;4.03;2.72;;;;;;;17.87;68.88;98298.78;5014910;28;20065;-68
2021/08/06 01:36:15;;;;;;;4.43;2.70;;;;;;;17.85;68.92;98304.31;5010985;28;20129;-67
2021/08/06 01:38:40;;;;;;;4.15;2.60;;;;;;;17.80;68.95;98301.28;5010728;28;20195;-66
2021/08/06 01:41:27;;;;;;;5.43;2.70;;;;;;;17.83;68.94;98300.13;5009620;28;20053;-67
2021/08/06 01:44:18;;;;;;;4.03;2.85;;;;;;;17.79;69.19;98308.41;5003636;28;20503;-67
2021/08/06 01:47:08;;;;;;;4.10;2.35;;;;;;;17.77;69.26;98301.53;4984978;28;20039;-66
2021/08/06 01:49:51;;;;;;;4.47;3.08;;;;;;;17.74;69.31;98293.88;4993261;28;20085;-66
2021/08/06 01:52:22;;;;;;;3.88;2.25;;;;;;;17.72;69.60;98290.50;4995572;28;20037;-67
2021/08/06 01:54:51;;;;;;;4.78;3.30;;;;;;;17.70;69.96;98287.19;4995401;28;20035;-65
2021/08/06 01:57:17;;;;;;;5.18;2.60;;;;;;;17.70;69.66;98285.34;4990166;28;20034;-67
2021/08/06 01:59:43;;;;;;;5.03;3.03;;;;;;;17.67;70.07;98279.50;4991496;28;20085;-67
2021/08/06 02:02:10;;;;;;;4.30;2.78;;;;;;;17.66;70.36;98275.16;4991268;28;20056;-66
2021/08/06 02:04:36;;;;;;;5.97;2.45;;;;;;;17.66;70.39;98277.84;4991336;28;20034;-68
2021/08/06 02:07:02;;;;;;;4.07;3.10;;;;;;;17.67;70.20;98285.69;4991133;28;20521;-68
2021/08/06 02:09:28;;;;;;;4.05;2.88;;;;;;;17.68;70.82;98284.69;4991680;28;20035;-67
2021/08/06 02:11:53;;;;;;;4.03;2.63;;;;;;;17.67;71.33;98272.34;4990123;28;20034;-68
2021/08/06 02:14:20;;;;;;;4.53;2.80;;;;;;;17.69;71.19;98278.34;4989820;28;20060;-67
2021/08/06 02:16:48;;;;;;;6.80;3.70;;;;;;;17.70;71.67;98272.03;4990741;28;20117;-67
2021/08/06 02:19:15;;;;;;;5.50;2.75;;;;;;;17.64;72.43;98279.81;5003378;28;20029;-68
2021/08/06 02:21:43;;;;;;;4.32;3.00;;;;;;;17.67;72.86;98267.03;5011294;28;20134;-67
2021/08/06 02:24:11;;;;;;;4.25;2.78;;;;;;;17.67;72.10;98272.34;5009803;28;20030;-68
2021/08/06 02:26:38;;;;;;;4.43;3.05;;;;;;;17.65;73.07;98274.34;5009818;28;20553;-66
2021/08/06 02:29:08;;;;;;;4.22;2.80;;;;;;;17.65;73.43;98274.34;5010453;28;20405;-68
2021/08/06 02:31:36;;;;;;;3.90;2.85;;;;;;;17.61;73.58;98259.66;5010566;28;20516;-69
2021/08/06 02:34:02;;;;;;;4.22;2.50;;;;;;;17.57;73.81;98258.28;5010514;28;20147;-68
2021/08/06 02:36:28;;;;;;;3.63;2.35;;;;;;;17.53;74.59;98265.75;5009503;28;20037;-67
2021/08/06 02:38:57;;;;;;;4.85;2.92;;;;;;;17.47;74.55;98261.06;5010138;28;20042;-67
2021/08/06 02:41:22;;;;;;;5.63;2.53;;;;;;;17.47;75.17;98254.91;5010167;28;20049;-68
2021/08/06 02:43:48;;;;;;;5.13;2.78;;;;;;;17.42;75.49;98251.88;5010778;28;20046;-68
2021/08/06 02:46:17;;;;;;;3.22;2.45;;;;;;;17.39;75.72;98261.84;5009929;28;20057;-67
2021/08/06 02:48:43;;;;;;;3.35;2.28;;;;;;;17.38;75.72;98248.69;5010588;28;20041;-67
2021/08/06 02:51:08;;;;;;;3.55;2.40;;;;;;;17.37;76.01;98250.50;5013075;28;20034;-68
2021/08/06 02:53:33;;;;;;;4.40;2.88;;;;;;;17.38;75.86;98251.34;5011949;28;20397;-67
2021/08/06 02:55:59;;;;;;;5.15;2.35;;;;;;;17.36;75.77;98250.66;5013680;28;20089;-68
2021/08/06 02:58:24;;;;;;;3.03;1.92;;;;;;;17.34;75.69;98239.34;5011589;28;20038;-67
2021/08/06 03:00:50;;;;;;;6.88;2.95;;;;;;;17.34;76.18;98250.81;5011206;28;20053;-67
2021/08/06 03:03:15;;;;;;;4.18;2.90;;;;;;;17.34;75.80;98244.66;5009966;28;20065;-66
2021/08/06 03:05:41;;;;;;;3.72;2.10;;;;;;;17.32;75.80;98244.81;5010137;28;20506;-66
2021/08/06 03:08:06;;;;;;;4.85;2.38;;;;;;;17.32;76.02;98234.16;5009276;28;20501;-66
2021/08/06 03:10:33;;;;;;;4.50;2.28;;;;;;;17.34;75.92;98240.16;5009648;28;20030;-66
2021/08/06 03:12:59;;;;;;;2.45;1.90;;;;;;;17.33;75.64;98230.50;5008378;28;20042;-67
2021/08/06 03:15:24;;;;;;;3.03;2.28;;;;;;;17.32;75.98;98226.16;5009669;28;20371;-67
2021/08/06 03:17:51;;;;;;;2.92;1.70;;;;;;;17.33;75.59;98227.84;5009275;28;20057;-66
2021/08/06 03:20:20;;;;;;;4.00;2.50;;;;;;;17.37;75.67;98228.34;5006360;28;20038;-66
2021/08/06 03:22:46;;;;;;;4.55;2.40;;;;;;;17.37;76.13;98225.69;5009664;28;20105;-66
2021/08/06 03:25:12;;;;;;;2.83;1.65;;;;;;;17.36;75.28;98219.53;5009702;28;20113;-67
2021/08/06 03:27:37;;;;;;;2.58;1.88;;;;;;;17.36;75.49;98219.53;5008697;28;20057;-66
2021/08/06 03:30:05;;;;;;;4.32;2.17;;;;;;;17.36;75.54;98216.03;5009474;28;20405;-67
2021/08/06 03:32:30;;;;;;;3.03;2.10;;;;;;;17.35;75.85;98220.53;5009267;28;20383;-68
2021/08/06 03:34:55;;;;;;;1.98;1.75;;;;;;;17.33;75.92;98224.34;5013302;28;20063;-68
2021/08/06 03:37:21;;;;;;;3.78;2.17;;;;;;;17.31;75.65;98213.00;5028688;28;20060;-68
2021/08/06 03:39:46;;;;;;;4.22;2.30;;;;;;;17.31;75.66;98219.16;5028958;28;20036;-67
2021/08/06 03:42:11;;;;;;;4.75;2.25;;;;;;;17.28;75.78;98216.00;5029154;28;20033;-66
2021/08/06 03:44:37;;;;;;;2.97;1.52;;;;;;;17.30;75.47;98212.19;5029052;28;20029;-67
2021/08/06 03:47:03;;;;;;;2.38;1.70;;;;;;;17.31;75.72;98223.66;5028152;28;20075;-67
2021/08/06 03:49:29;;;;;;;2.53;1.30;;;;;;;17.27;75.63;98220.47;5028486;28;20030;-67
2021/08/06 03:51:54;;;;;;;3.33;2.10;;;;;;;17.29;75.49;98231.81;5028869;28;20045;-68
2021/08/06 03:54:19;;;;;;;3.25;2.10;;;;;;;17.28;75.57;98224.81;5029405;28;20041;-67
2021/08/06 03:56:45;;;;;;;2.35;1.85;;;;;;;17.30;75.84;98228.16;5027993;28;20026;-66
2021/08/06 03:59:10;;;;;;;2.63;1.70;;;;;;;17.33;75.52;98237.69;5028887;28;20060;-67
2021/08/06 04:01:36;;;;;;;3.70;1.70;;;;;;;17.32;75.79;98235.97;5028382;28;20054;-66
2021/08/06 04:04:01;;;;;;;1.83;1.63;;;;;;;17.30;75.44;98238.81;5028928;28;20402;-67
2021/08/06 04:06:26;;;;;;;3.03;2.10;;;;;;;17.31;75.86;98242.31;5027784;28;20049;-68
2021/08/06 04:08:52;;;;;;;4.45;1.73;;;;;;;17.30;75.38;98246.81;5029311;28;20072;-67
2021/08/06 04:11:18;;;;;;;1.92;1.40;;;;;;;17.29;75.74;98239.78;5027386;28;20103;-66
2021/08/06 04:13:43;;;;;;;2.47;1.40;;;;;;;17.28;75.62;98238.13;5028635;28;20078;-66
2021/08/06 04:16:08;;;;;;;2.55;1.40;;;;;;;17.29;75.69;98237.13;5028445;28;20038;-67
2021/08/06 04:18:34;;;;;;;2.47;1.60;;;;;;;17.30;75.54;98246.81;5027552;28;20120;-67
2021/08/06 04:21:00;;;;;;;2.97;1.20;;;;;;;17.34;75.28;98244.66;5027949;28;20042;-66
2021/08/06 04:23:25;;;;;;;2.78;1.40;;;;;;;17.33;74.96;98245.66;5028798;28;20494;-66
2021/08/06 04:25:51;;;;;;;2.15;1.50;;;;;;;17.36;74.99;98246.16;5029056;28;20083;-66
2021/08/06 04:28:16;;;;;;;4.18;1.88;;;;;;;17.38;75.16;98241.53;5027776;28;20033;-68
2021/08/06 04:30:42;;;;;;;2.20;1.42;;;;;;;17.39;74.95;98245.03;5028174;28;20486;-68
2021/08/06 04:33:07;;;;;;;3.17;1.40;;;;;;;17.42;75.20;98241.22;5028444;28;20128;-68
2021/08/06 04:35:32;;;;;;;2.38;1.38;;;;;;;17.42;75.41;98238.53;5028091;28;20029;-67
2021/08/06 04:37:58;;;;;;;1.85;1.35;;;;;;;17.38;75.23;98236.19;5027621;28;20061;-67
2021/08/06 04:40:25;;;;;;;1.92;1.48;;;;;;;17.37;75.97;98245.16;5028632;28;20112;-67
2021/08/06 04:42:50;;;;;;;2.83;1.75;;;;;;;17.39;76.05;98243.19;5028598;28;20480;-67
2021/08/06 04:45:16;;;;;;;2.92;1.48;;;;;;;17.40;76.12;98249.38;5027789;28;20041;-68
2021/08/06 04:47:45;;;;;;;3.40;1.48;;;;;;;17.38;76.29;98254.03;5031106;28;20401;-68
2021/08/06 04:50:13;;;;;;;4.15;1.70;;;;;;;17.32;76.71;98252.78;5031816;28;20033;-68
2021/08/06 04:52:38;;;;;;;1.60;1.27;;;;;;;17.30;76.96;98256.59;5031967;28;20037;-69
2021/08/06 04:55:04;;;;;;;1.30;1.10;;;;;;;17.23;77.22;98251.09;5030492;28;20041;-69
2021/08/06 04:57:29;;;;;;;1.98;1.42;;;;;;;17.21;78.09;98255.72;5031240;28;20037;-67
2021/08/06 04:59:54;;;;;;;4.47;1.90;;;;;;;17.19;77.74;98249.72;5031696;28;20491;-68
2021/08/06 05:02:20;;;;;;;2.40;1.50;;;;;;;17.16;77.94;98253.53;5030389;28;20084;-67
2021/08/06 05:04:45;;;;;;;2.35;1.25;;;;;;;17.16;77.70;98258.84;5030427;28;20037;-68
2021/08/06 05:07:20;;;;;;;1.83;1.27;;;;;;;17.19;77.73;98263.03;5031289;28;20033;-67
2021/08/06 05:09:45;;;;;;;2.63;1.48;;;;;;;17.22;78.08;98264.56;5031987;28;20029;-68
2021/08/06 05:12:11;;;;;;;4.70;1.50;;;;;;;17.23;77.98;98255.56;5031872;28;20374;-67
2021/08/06 05:14:36;;;;;;;2.13;1.63;;;;;;;17.25;77.76;98250.91;5031558;28;20033;-69
2021/08/06 05:17:02;;;;;;;2.70;1.73;;;;;;;17.28;77.88;98262.09;5031062;28;20116;-68
2021/08/06 05:19:27;;;;;;;3.38;1.52;;;;;;;17.27;77.65;98257.75;5031559;28;20168;-67
2021/08/06 05:21:53;;;;;;;3.22;2.22;;;;;;;17.26;77.51;98260.59;5031037;28;20116;-67
2021/08/06 05:24:18;;;;;;;2.47;1.77;;;;;;;17.28;77.90;98259.44;5031230;28;20029;-68
2021/08/06 05:26:43;;;;;;;5.80;1.90;;;;;;;17.31;77.56;98267.13;5030428;28;20033;-66
2021/08/06 05:29:09;;;;;;;1.63;1.23;;;;;;;17.33;77.79;98265.13;5030842;28;20190;-68
2021/08/06 05:31:34;;;;;;;5.38;1.67;;;;;;;17.37;77.46;98269.16;5030975;28;20033;-66
2021/08/06 05:33:59;;;;;;;2.72;1.55;;;;;;;17.42;76.87;98273.19;5030909;28;20040;-66
2021/08/06 05:36:25;;;;;;;3.03;1.55;;;;;;;17.41;76.81;98267.03;5030294;28;20029;-67
2021/08/06 05:38:50;;;;;;;2.25;1.40;;;;;;;17.42;76.41;98267.84;5030657;28;20057;-67
2021/08/06 05:41:15;;;;;;;2.40;1.58;;;;;;;17.43;76.31;98270.38;5030978;28;20509;-66
2021/08/06 05:43:41;;;;;;;2.65;1.27;;;;;;;17.44;76.48;98266.69;5030966;28;20061;-67
2021/08/06 05:46:06;;;;;;;2.25;1.38;;;;;;;17.42;76.31;98263.34;5030762;28;20048;-67
2021/08/06 05:48:31;;;;;;;1.40;1.15;;;;;;;17.39;76.49;98266.34;5030317;28;20037;-67
2021/08/06 05:50:57;;;;;;;2.17;1.30;;;;;;;17.43;76.75;98272.22;5031043;28;20099;-67
2021/08/06 05:53:22;;;;;;;3.05;1.70;;;;;;;17.41;76.62;98264.34;5030611;28;20079;-67
2021/08/06 05:55:48;;;;;;;1.83;1.20;;;;;;;17.44;76.53;98273.88;5030594;28;20053;-68
2021/08/06 05:58:13;;;;;;;1.63;1.27;;;;;;;17.46;76.78;98274.53;5029753;28;20115;-67
2021/08/06 06:00:39;;;;;;;1.60;1.38;;;;;;;17.43;76.16;98275.69;5030127;28;20038;-66
2021/08/06 06:03:04;;;;;;;4.50;1.40;;;;;;;17.46;76.15;98275.38;5029877;28;20559;-66
2021/08/06 06:05:29;;;;;;;1.75;1.33;;;;;;;17.49;76.18;98276.91;5030859;28;20049;-66
2021/08/06 06:07:54;;;;;;;1.90;1.23;;;;;;;17.55;76.24;98281.59;5027888;28;20466;-67
2021/08/06 06:10:22;;;;;;;5.22;1.70;;;;;;;17.60;75.79;98288.13;5029630;28;20041;-67
2021/08/06 06:12:48;;;;;;;2.22;1.42;;;;;;;17.63;75.56;98284.31;5030396;28;20128;-67
2021/08/06 06:15:13;;;;;;;3.50;1.95;;;;;;;17.63;75.88;98283.50;5030560;28;20553;-67
2021/08/06 06:17:39;;;;;;;4.45;1.70;;;;;;;17.66;75.76;98293.81;5028968;28;20132;-66
2021/08/06 06:20:05;;;;;;;2.70;1.73;;;;;;;17.65;75.84;98284.16;5030259;28;20037;-67
2021/08/06 06:22:31;;;;;;;6.80;2.22;;;;;;;17.71;75.80;98296.84;5023483;28;20501;-67
2021/08/06 06:24:56;;;;;;;2.30;1.60;;;;;;;17.73;75.33;98297.53;5009797;28;20033;-66
2021/08/06 06:27:21;;;;;;;1.77;1.30;;;;;;;17.76;74.61;98297.22;5008890;28;20072;-67
2021/08/06 06:29:47;;;;;;;3.15;1.40;;;;;;;17.79;74.32;98294.22;5010331;28;20080;-66
2021/08/06 06:32:12;;;;;;;5.80;1.92;;;;;;;17.80;74.68;98301.28;5010094;28;20030;-67
2021/08/06 06:34:38;;;;;;;4.45;1.60;;;;;;;17.83;74.75;98308.13;5010204;28;20117;-66
2021/08/06 06:37:03;;;;;;;4.70;2.33;;;;;;;17.83;74.39;98305.47;5009402;28;20371;-67
2021/08/06 06:39:29;;;;;;;3.40;1.75;;;;;;;17.88;75.13;98303.97;5009532;28;20026;-66
2021/08/06 06:41:54;;;;;;;3.28;1.90;;;;;;;18.00;74.98;98307.22;5010070;28;20038;-67
2021/08/06 06:44:19;;;;;;;4.32;1.90;;;;;;;18.13;75.00;98309.44;5009821;28;20092;-67
2021/08/06 06:46:45;;;;;;;4.30;1.85;;;;;;;18.24;74.52;98318.00;5009148;28;20030;-67
2021/08/06 06:49:10;;;;;;;3.47;2.08;;;;;;;18.35;74.54;98324.03;5008270;28;20037;-68
2021/08/06 06:51:35;;;;;;;3.55;2.47;;;;;;;18.35;74.36;98321.38;5010107;28;20057;-66
2021/08/06 06:54:01;;;;;;;4.80;1.95;;;;;;;18.40;74.04;98321.72;5009560;28;20462;-67
2021/08/06 06:56:26;;;;;;;6.00;2.13;;;;;;;18.45;73.63;98327.41;5008994;28;20113;-67
2021/08/06 06:58:53;;;;;;;4.43;1.85;;;;;;;18.44;73.49;98326.56;5009935;28;20057;-68
2021/08/06 07:01:18;;;;;;;4.18;2.08;;;;;;;18.49;72.98;98327.94;5009893;28;20030;-66
2021/08/06 07:03:43;;;;;;;3.10;1.85;;;;;;;18.58;72.28;98327.78;5009701;28;20510;-67
2021/08/06 07:06:09;;;;;;;4.95;2.25;;;;;;;18.63;72.03;98332.63;5009749;28;20069;-68
2021/08/06 07:08:34;;;;;;;3.10;1.77;;;;;;;18.62;72.05;98338.97;5008725;28;20041;-67
2021/08/06 07:11:00;;;;;;;3.65;1.80;;;;;;;18.62;72.46;98333.63;5009403;28;20133;-67
2021/08/06 07:13:25;;;;;;;3.78;1.95;;;;;;;18.63;72.57;98352.16;5009617;28;20038;-65
2021/08/06 07:15:51;;;;;;;3.30;1.83;;;;;;;18.61;72.73;98348.00;5009547;28;20034;-67
2021/08/06 07:18:16;;;;;;;3.63;1.92;;;;;;;18.61;72.88;98356.00;5008937;28;20038;-66
2021/08/06 07:20:42;;;;;;;6.80;2.20;;;;;;;18.56;73.11;98350.31;5009190;28;20034;-66
2021/08/06 07:23:07;;;;;;;3.72;2.00;;;;;;;18.50;73.45;98356.28;5013201;28;20037;-66
2021/08/06 07:25:33;;;;;;;5.05;2.13;;;;;;;18.46;74.24;98353.09;4995477;28;20116;-66
2021/08/06 07:27:58;;;;;;;3.80;2.10;;;;;;;18.47;74.52;98353.94;5004362;28;20110;-68
2021/08/06 07:30:23;;;;;;;6.18;2.00;;;;;;;18.40;75.31;98361.75;5009726;28;20054;-67
2021/08/06 07:32:49;;;;;;;5.32;2.17;;;;;;;18.35;75.26;98369.38;5009121;28;20068;-67
2021/08/06 07:35:16;;;;;;;7.70;3.03;;;;;;;18.22;76.59;98383.19;5010135;28;20505;-69
2021/08/06 07:37:42;;;;;;;5.00;2.47;;;;;;;17.97;77.62;98390.19;5007232;28;20030;-67
2021/08/06 07:40:09;;;;;;;7.07;3.90;;;;;;;17.65;78.03;98391.59;5008866;28;20567;-68
2021/08/06 07:42:34;;;;;;;4.22;1.77;;;;;;;17.40;78.45;98398.56;5009447;28;20049;-67
2021/08/06 07:44:59;;;;;;;5.07;2.50;;;;;;;17.28;78.88;98395.28;5009413;28;20026;-67
2021/08/06 07:47:25;;;;;;;4.03;2.05;;;;;;;17.20;78.93;98400.53;5007908;28;20417;-67
2021/08/06 07:49:50;;;;;;;7.07;2.45;;;;;;;17.20;79.69;98397.03;5009432;28;20034;-68
2021/08/06 07:52:16;;;;;;;4.55;1.83;;;;;;;17.19;80.00;98398.03;5009046;28;20032;-66
2021/08/06 07:54:42;;;;;;;2.42;1.75;;;;;;;17.24;79.92;98401.06;5008532;28;20557;-66
2021/08/06 07:57:07;;;;;;;6.15;2.72;;;;;;;17.26;80.28;98397.25;4990584;28;20084;-66
2021/08/06 07:59:33;;;;;;;5.63;2.00;;;;;;;17.31;80.85;98394.97;5009554;28;20898;-66
2021/08/06 08:01:59;;;;;;;7.70;2.28;;;;;;;17.35;80.25;98396.34;5008906;28;20038;-68
2021/08/06 08:04:24;;;;;;;7.97;2.42;;;;;;;17.39;79.63;98391.53;5008636;28;20117;-67
2021/08/06 08:06:50;;;;;;;4.20;1.90;;;;;;;17.38;78.95;98393.38;5008550;28;20030;-67
2021/08/06 08:09:15;;;;;;;3.03;1.75;;;;;;;17.41;79.14;98394.91;5008893;28;21015;-68
2021/08/06 08:11:40;;;;;;;4.10;2.50;;;;;;;17.43;79.09;98403.59;5008719;28;20516;-67
2021/08/06 08:14:06;;;;;;;2.92;1.92;;;;;;;17.48;79.03;98398.63;5009064;28;20513;-67
2021/08/06 08:16:31;;;;;;;5.88;2.40;;;;;;;17.58;78.21;98402.03;5008557;28;20042;-68
2021/08/06 08:18:57;;;;;;;2.28;1.65;;;;;;;17.70;78.64;98399.16;5009132;28;20087;-67
2021/08/06 08:21:23;;;;;;;6.10;2.85;;;;;;;17.81;78.50;98398.91;5010027;28;20038;-68
2021/08/06 08:23:48;;;;;;;4.78;3.05;;;;;;;17.98;78.33;98392.69;5012637;28;20049;-68
2021/08/06 08:26:14;;;;;;;4.07;2.40;;;;;;;18.14;76.92;98393.78;5012863;28;20034;-68
2021/08/06 08:28:39;;;;;;;6.70;2.28;;;;;;;18.22;76.96;98388.50;5012327;28;20033;-68
2021/08/06 08:31:05;;;;;;;6.38;2.65;;;;;;;18.35;76.90;98388.06;5019562;28;20034;-68
2021/08/06 08:33:30;;;;;;;6.13;2.60;;;;;;;18.50;75.36;98386.47;5032208;28;20029;-67
2021/08/06 08:35:56;;;;;;;4.10;2.47;;;;;;;18.72;75.70;98390.38;5032194;28;20038;-68
2021/08/06 08:38:58;;;;;;;7.10;3.42;;;;;;;18.91;74.81;98394.66;5032285;28;20515;-71
2021/08/06 08:41:24;;;;;;;4.63;3.20;;;;;;;18.99;73.71;98392.00;5012909;28;20077;-66
2021/08/06 08:43:50;;;;;;;7.55;2.75;;;;;;;19.15;74.19;98409.06;5013194;28;20121;-69
2021/08/06 08:46:17;;;;;;;4.30;2.30;;;;;;;19.41;73.41;98400.91;5012504;28;20052;-68
2021/08/06 08:48:44;;;;;;;4.30;2.55;;;;;;;19.52;71.72;98396.09;5012258;28;20121;-67
2021/08/06 08:51:12;;;;;;;5.63;3.00;;;;;;;19.70;71.05;98393.25;5012238;28;20026;-66
2021/08/06 08:53:37;;;;;;;6.18;2.75;;;;;;;19.81;70.92;98401.94;5012159;28;20033;-66
2021/08/06 08:56:03;;;;;;;7.97;2.40;;;;;;;19.72;71.81;98404.63;5012406;28;20055;-66
2021/08/06 08:58:28;;;;;;;4.05;2.40;;;;;;;19.62;72.08;98397.75;5011175;28;20504;-66
2021/08/06 09:00:54;;;;;;;5.30;2.50;;;;;;;19.45;70.99;98400.41;5012100;28;20038;-66
2021/08/06 09:03:39;;;;;;;7.38;2.95;;;;;;;19.39;71.47;98401.06;5012337;28;20026;-67
2021/08/06 09:06:05;;;;;;;;;;;;;;;19.26;71.58;98408.75;5016147;28;20045;-69
2021/08/06 09:08:31;;;;;;;4.30;2.78;;;;;;;19.19;71.69;98402.38;5011296;28;20432;-68
2021/08/06 09:10:56;;;;;;;7.28;2.92;;;;;;;19.08;71.19;98401.72;5010381;28;20512;-66
2021/08/06 09:13:23;;;;;;;6.32;2.50;;;;;;;19.06;71.67;98410.88;5011830;28;20508;-68
2021/08/06 09:15:57;;;;;;;6.88;3.03;;;;;;;19.00;72.06;98409.72;5011969;28;20057;-68
2021/08/06 09:18:38;;;;;;;6.22;3.15;;;;;;;18.93;73.32;98407.84;5009796;28;20041;-68
2021/08/06 09:21:16;;;;;;;6.75;3.67;;;;;;;18.88;73.90;98392.31;5013239;28;20054;-68
2021/08/06 09:23:44;;;;;;;6.22;3.00;;;;;;;18.83;73.04;98392.81;5010917;28;20044;-69
2021/08/06 09:26:27;;;;;;;6.55;3.28;;;;;;;18.80;73.04;98392.28;5011544;28;20113;-67
2021/08/06 09:29:00;;;;;;;8.00;3.30;;;;;;;19.93;70.22;98398.75;5011421;28;20033;-69
2021/08/06 09:31:26;;;;;;;5.60;2.60;;;;;;;20.97;66.54;98396.94;5010907;28;20042;-67
2021/08/06 09:34:14;;;;;;;8.48;2.80;;;;;;;21.91;62.36;98385.22;5011490;28;20073;-67
2021/08/06 09:36:54;;;;;;;5.50;2.80;;;;;;;22.88;60.03;98387.78;5010591;28;20034;-66
2021/08/06 09:39:21;;;;;;;4.70;2.75;;;;;;;23.76;56.49;98386.69;5010725;28;20501;-66
2021/08/06 09:41:47;;;;;;;4.05;2.60;;;;;;;24.41;53.32;98378.41;5011373;28;20038;-67
2021/08/06 09:44:20;;;;;;;7.47;2.67;;;;;;;24.82;52.82;98380.28;5011514;28;20168;-67
2021/08/06 09:46:46;;;;;;;4.18;2.22;;;;;;;24.93;50.24;98384.25;5009808;28;20524;-67
2021/08/06 09:49:12;;;;;;;3.00;2.33;;;;;;;24.54;51.71;98375.81;5010984;28;20042;-68
2021/08/06 09:51:40;;;;;;;4.47;2.47;;;;;;;24.14;52.68;98391.72;5011205;28;20029;-66
2021/08/06 09:54:18;;;;;;;9.35;2.85;;;;;;;24.72;49.99;98385.22;5010919;28;20066;-66
2021/08/06 09:56:44;;;;;;;7.25;2.10;;;;;;;24.54;50.44;98393.84;5012362;28;20049;-67
2021/08/06 09:59:09;;;;;;;3.92;2.28;;;;;;;23.51;53.09;98396.97;5010945;28;20061;-66
2021/08/06 10:01:36;;;;;;;4.68;2.35;;;;;;;23.11;54.79;98395.72;5010989;28;20223;-66
2021/08/06 10:04:14;;;;;;;5.15;2.10;;;;;;;22.68;55.85;98401.81;5014855;28;20034;-66
2021/08/06 10:06:54;;;;;;;5.10;2.55;;;;;;;22.13;56.74;98407.63;5009951;28;20028;-68
2021/08/06 10:09:21;;;;;;;5.78;2.00;;;;;;;21.60;57.98;98408.41;5010556;28;20512;-68
2021/08/06 10:11:46;;;;;;;7.53;3.00;;;;;;;21.23;59.86;98412.69;5010601;28;20046;-67
2021/08/06 10:14:12;;;;;;;4.10;2.22;;;;;;;20.99;60.67;98420.84;5010946;28;20034;-67
2021/08/06 10:16:37;;;;;;;3.65;2.13;;;;;;;20.64;61.29;98419.53;5009626;28;20136;-67
2021/08/06 10:19:03;;;;;;;3.35;2.00;;;;;;;20.30;63.11;98424.09;5010988;28;20037;-68
2021/08/06 10:21:28;;;;;;;4.07;2.20;;;;;;;20.04;65.54;98423.50;5010327;28;20141;-67
2021/08/06 10:23:54;;;;;;;3.17;2.00;;;;;;;19.76;65.84;98426.50;5009358;28;20033;-66
2021/08/06 10:26:19;;;;;;;3.97;2.05;;;;;;;19.61;67.06;98426.31;5009487;28;20044;-68
2021/08/06 10:28:45;;;;;;;4.13;2.00;;;;;;;19.54;67.70;98433.31;5010331;28;20044;-68
2021/08/06 10:31:22;;;;;;;6.43;2.42;;;;;;;19.36;68.40;98451.34;5010244;28;20033;-66
2021/08/06 10:34:06;;;;;;;7.78;3.42;;;;;;;19.06;70.59;98450.94;5010485;28;20033;-66
2021/08/06 10:36:42;;;;;;;3.55;2.38;;;;;;;18.51;70.25;98470.88;5014023;28;20052;-68
2021/08/06 10:39:41;;;;;;;;;;;;;;;18.15;70.69;98462.97;5013682;28;20109;-69
2021/08/06 10:42:07;;;;;;;4.80;2.33;;;;;;;17.93;71.72;98479.50;5007517;28;19928;-67
2021/08/06 10:44:59;;;;;;;5.63;2.80;;;;;;;17.83;72.12;98465.41;5009732;28;20037;-68
2021/08/06 10:47:52;;;;;;;5.60;2.40;;;;;;;17.84;72.59;98470.56;5009332;28;20504;-67
2021/08/06 10:50:20;;;;;;;5.15;2.53;;;;;;;17.93;72.87;98463.50;5010214;28;20038;-68
2021/08/06 10:53:25;;;;;;;3.35;2.00;;;;;;;18.31;72.53;98464.06;5009910;28;20038;-66
2021/08/06 10:56:17;;;;;;;3.80;2.10;;;;;;;18.64;71.53;98465.09;5011157;28;20030;-67
2021/08/06 10:58:51;;;;;;;3.25;2.03;;;;;;;18.76;71.69;98465.72;5002331;28;20099;-70
2021/08/06 11:01:25;;;;;;;2.58;1.75;;;;;;;18.95;71.64;98462.78;5009800;28;20046;-66
2021/08/06 11:04:11;;;;;;;6.07;2.55;;;;;;;19.63;70.14;98458.25;5009637;28;20069;-67
2021/08/06 11:06:52;;;;;;;6.95;2.00;;;;;;;20.20;66.15;98455.56;4985462;28;20038;-68
2021/08/06 11:09:27;;;;;;;6.85;2.35;;;;;;;20.28;66.34;98452.91;5009973;28;20029;-68
2021/08/06 11:12:03;;;;;;;4.95;2.17;;;;;;;20.33;65.76;98444.34;5007552;28;20092;-67
2021/08/06 11:14:28;;;;;;;4.75;2.05;;;;;;;20.36;64.55;98439.50;5009567;28;20053;-67
2021/08/06 11:17:09;;;;;;;5.65;1.88;;;;;;;20.57;64.72;98435.44;4994171;28;20082;-68
2021/08/06 11:19:38;;;;;;;2.95;1.73;;;;;;;20.81;64.60;98431.84;4986598;28;20046;-67
2021/08/06 11:22:10;;;;;;;4.25;2.45;;;;;;;20.78;63.35;98435.69;5001034;28;20067;-67
2021/08/06 11:24:41;;;;;;;4.22;2.25;;;;;;;20.89;63.14;98433.63;5009560;28;20393;-66
2021/08/06 11:27:08;;;;;;;3.38;1.77;;;;;;;20.90;63.91;98435.31;5003793;28;20903;-66
2021/08/06 11:29:34;;;;;;;5.10;2.03;;;;;;;20.63;60.66;98432.09;5002946;28;20044;-64
2021/08/06 11:32:09;;;;;;;2.95;1.55;;;;;;;20.52;61.03;98429.72;5002596;28;20088;-67
2021/08/06 11:34:56;;;;;;;3.33;1.77;;;;;;;20.42;62.60;98443.31;5009352;28;20036;-67
2021/08/06 11:37:24;;;;;;;3.83;1.65;;;;;;;20.24;62.47;98437.34;4988423;28;20285;-66